createdAt,value
2023-02-23T00:00:33.582Z,21.3
2023-02-23T00:15:32.984Z,21.3
2023-02-23T00:30:32.507Z,21.3
2023-02-23T00:45:32.298Z,21.3
2023-02-23T01:00:32.599Z,21.3
2023-02-23T01:15:32.149Z,21.3
2023-02-23T01:30:32.746Z,21.2
2023-02-23T01:45:32.236Z,21.2
2023-02-23T02:00:32.538Z,21.2
2023-02-23T02:15:32.123Z,21.2
2023-02-23T02:30:32.336Z,21.2
2023-02-23T02:45:32.164Z,21.2
2023-02-23T03:00:31.995Z,21.2
2023-02-23T03:15:32.640Z,21.2
2023-02-23T03:30:32.097Z,21.1
2023-02-23T03:45:31.822Z,21.2
2023-02-23T04:00:33.198Z,21.1
2023-02-23T04:15:32.234Z,21.1
2023-02-23T04:30:32.755Z,21.1
2023-02-23T04:45:32.238Z,21.1
2023-02-23T05:00:32.491Z,21.1
2023-02-23T05:15:32.526Z,21.0
2023-02-23T05:30:32.360Z,21.0
2023-02-23T05:45:32.227Z,21
2023-02-23T06:00:34.050Z,21
2023-02-23T06:15:32.831Z,21
2023-02-23T06:30:32.503Z,21
2023-02-23T06:45:32.508Z,21.1
2023-02-23T07:00:38.548Z,21.2
2023-02-23T07:15:32.260Z,21.4
2023-02-23T07:30:35.243Z,21.4
2023-02-23T07:45:32.976Z,21.5
2023-02-23T08:00:36.673Z,21.6
2023-02-23T08:15:33.194Z,21.7
2023-02-23T08:30:33.161Z,21.8
2023-02-23T08:45:32.879Z,21.8
2023-02-23T09:00:37.470Z,21.9
2023-02-23T09:15:32.963Z,22.0
2023-02-23T09:30:32.716Z,22
2023-02-23T09:45:32.917Z,22.1
2023-02-23T10:00:34.882Z,22.1
2023-02-23T10:15:32.173Z,22.2
2023-02-23T10:30:34.157Z,22.2
2023-02-23T10:45:32.412Z,22.2
2023-02-23T11:00:34.399Z,22.3
2023-02-23T11:15:49.032Z,22.3
2023-02-23T11:30:33.017Z,22.3
2023-02-23T11:45:32.430Z,22.4
2023-02-23T12:00:38.761Z,22.4
2023-02-23T12:15:32.528Z,22.5
2023-02-23T12:30:32.913Z,22.5
2023-02-23T12:45:32.046Z,22.6
2023-02-23T13:00:35.644Z,22.6
2023-02-23T13:15:32.564Z,22.6
2023-02-23T13:30:32.332Z,22.7
2023-02-23T13:45:32.586Z,22.7
2023-02-23T14:00:34.853Z,22.8
2023-02-23T14:15:32.983Z,22.8
2023-02-23T14:30:34.232Z,22.8
2023-02-23T14:45:33.103Z,22.9
2023-02-23T15:00:34.093Z,22.9
2023-02-23T15:15:32.591Z,22.9
2023-02-23T15:30:33.490Z,22.9
2023-02-23T15:45:33.011Z,22.8
2023-02-23T16:00:34.273Z,22.8
2023-02-23T16:15:32.808Z,22.7
2023-02-23T16:30:33.909Z,22.6
2023-02-23T16:45:32.348Z,22.4
2023-02-23T17:00:37.711Z,22.3
2023-02-23T17:15:32.864Z,22.3
2023-02-23T17:30:34.605Z,22.2
2023-02-23T17:45:32.628Z,22.2
2023-02-23T18:00:37.824Z,22.1
2023-02-23T18:15:32.465Z,22.1
2023-02-23T18:30:34.262Z,22.0
2023-02-23T18:45:32.598Z,21.9
2023-02-23T19:00:38.054Z,21.9
2023-02-23T19:15:32.498Z,21.8
2023-02-23T19:30:33.920Z,21.8
2023-02-23T19:45:32.411Z,21.8
2023-02-23T20:00:34.800Z,21.7
2023-02-23T20:15:32.523Z,21.7
2023-02-23T20:30:33.239Z,21.6
2023-02-23T20:45:32.984Z,21.6
2023-02-23T21:00:34.023Z,21.6
2023-02-23T21:15:32.448Z,21.6
2023-02-23T21:30:32.065Z,21.5
2023-02-23T21:45:32.756Z,21.5
2023-02-23T22:00:32.587Z,21.5
2023-02-23T22:15:32.902Z,21.5
2023-02-23T22:30:31.813Z,21.5
2023-02-23T22:45:32.364Z,21.5
2023-02-23T23:00:33.010Z,21.5
2023-02-23T23:15:32.012Z,21.4
2023-02-23T23:30:31.420Z,21.4
2023-02-23T23:45:32.425Z,21.4
